createdAt,value
2022-08-26T00:00:01.831Z,100
2022-08-26T00:01:02.493Z,100
2022-08-26T00:02:03.129Z,100
2022-08-26T00:03:03.149Z,100
2022-08-26T00:04:02.335Z,100
2022-08-26T00:05:02.163Z,100
2022-08-26T00:06:02.750Z,100
2022-08-26T00:07:02.518Z,100
2022-08-26T00:08:02.288Z,100
2022-08-26T00:09:02.319Z,100
2022-08-26T00:10:02.355Z,100
2022-08-26T00:11:02.202Z,100
2022-08-26T00:12:02.018Z,100
2022-08-26T00:13:01.910Z,100
2022-08-26T00:14:01.681Z,100
2022-08-26T00:15:02.551Z,100
2022-08-26T00:16:02.576Z,100
2022-08-26T00:17:02.572Z,100
2022-08-26T00:18:02.526Z,100
2022-08-26T00:19:02.353Z,100
2022-08-26T00:20:02.212Z,100
2022-08-26T00:21:06.488Z,100
2022-08-26T00:22:02.533Z,100
2022-08-26T00:23:02.417Z,100
2022-08-26T00:24:02.510Z,100
2022-08-26T00:25:02.875Z,100
2022-08-26T00:26:01.857Z,100
2022-08-26T00:27:01.678Z,100
2022-08-26T00:28:01.633Z,100
2022-08-26T00:29:01.652Z,100
2022-08-26T00:30:01.917Z,100
2022-08-26T00:31:03.438Z,100
2022-08-26T00:32:04.544Z,100
2022-08-26T00:33:02.606Z,100
2022-08-26T00:34:01.607Z,100
2022-08-26T00:35:02.101Z,100
2022-08-26T00:36:02.729Z,100
2022-08-26T00:37:03.625Z,100
2022-08-26T00:38:01.629Z,100
2022-08-26T00:39:02.161Z,100
2022-08-26T00:40:05.678Z,100
2022-08-26T00:41:01.610Z,100
2022-08-26T00:42:02.506Z,100
2022-08-26T00:43:09.537Z,100
2022-08-26T00:44:01.650Z,100
2022-08-26T00:45:11.573Z,100
2022-08-26T00:46:02.723Z,100
2022-08-26T00:47:02.470Z,100
2022-08-26T00:48:03.999Z,100
2022-08-26T00:49:02.341Z,100
2022-08-26T00:50:02.005Z,100
2022-08-26T00:51:02.331Z,100
2022-08-26T00:52:02.137Z,100
2022-08-26T00:53:02.019Z,100
2022-08-26T00:54:03.878Z,100
2022-08-26T00:55:02.607Z,100
2022-08-26T00:56:01.621Z,100
2022-08-26T00:57:04.160Z,100
2022-08-26T00:58:02.109Z,100
2022-08-26T00:59:04.496Z,100
2022-08-26T01:00:02.500Z,100
2022-08-26T01:01:01.857Z,100
2022-08-26T01:02:03.345Z,100
2022-08-26T01:03:05.710Z,100
2022-08-26T01:04:02.427Z,100
2022-08-26T01:05:04.201Z,100
2022-08-26T01:06:02.046Z,100
2022-08-26T01:07:02.827Z,100
2022-08-26T01:08:03.921Z,100
2022-08-26T01:09:01.716Z,100
2022-08-26T01:10:01.599Z,100
2022-08-26T01:11:02.457Z,100
2022-08-26T01:12:02.167Z,100
2022-08-26T01:13:03.703Z,100
2022-08-26T01:14:02.961Z,100
2022-08-26T01:15:01.814Z,100
2022-08-26T01:16:02.320Z,100
2022-08-26T01:17:05.287Z,100
2022-08-26T01:18:02.420Z,100
2022-08-26T01:19:03.647Z,100
2022-08-26T01:20:03.325Z,100
2022-08-26T01:21:02.465Z,100
2022-08-26T01:22:01.805Z,100
2022-08-26T01:23:03.596Z,100
2022-08-26T01:24:01.564Z,100
2022-08-26T01:25:03.986Z,100
2022-08-26T01:26:02.681Z,100
2022-08-26T01:27:01.620Z,100
2022-08-26T01:28:02.465Z,100
2022-08-26T01:29:02.333Z,100
2022-08-26T01:30:02.691Z,100
2022-08-26T01:31:02.413Z,100
2022-08-26T01:32:05.285Z,100
2022-08-26T01:33:02.391Z,100
2022-08-26T01:34:02.453Z,100
2022-08-26T01:35:02.269Z,100
2022-08-26T01:36:02.154Z,100
2022-08-26T01:37:02.036Z,100
2022-08-26T01:38:02.434Z,100
2022-08-26T01:39:07.296Z,100
2022-08-26T01:40:02.398Z,100
2022-08-26T01:41:02.894Z,100
2022-08-26T01:42:03.530Z,100
2022-08-26T01:43:01.677Z,100
2022-08-26T01:44:02.492Z,100
2022-08-26T01:45:02.347Z,100
2022-08-26T01:46:02.132Z,100
2022-08-26T01:47:02.071Z,100
2022-08-26T01:48:02.143Z,100
2022-08-26T01:49:01.968Z,100
2022-08-26T01:50:03.268Z,100
2022-08-26T01:51:02.072Z,100
2022-08-26T01:52:03.288Z,100
2022-08-26T01:53:01.917Z,100
2022-08-26T01:54:02.796Z,100
2022-08-26T01:55:02.304Z,100
2022-08-26T01:56:03.326Z,100
2022-08-26T01:57:02.176Z,100
2022-08-26T01:58:02.205Z,100
2022-08-26T01:59:02.331Z,100
2022-08-26T02:00:02.218Z,100
2022-08-26T02:01:02.910Z,100
2022-08-26T02:02:01.885Z,100
2022-08-26T02:03:02.472Z,100
2022-08-26T02:04:02.340Z,100
2022-08-26T02:05:02.216Z,100
2022-08-26T02:06:02.043Z,100
2022-08-26T02:07:01.866Z,100
2022-08-26T02:08:03.015Z,100
2022-08-26T02:09:01.642Z,100
2022-08-26T02:10:03.584Z,100
2022-08-26T02:11:02.427Z,100
2022-08-26T02:12:02.350Z,100
2022-08-26T02:13:01.934Z,100
2022-08-26T02:14:01.743Z,100
2022-08-26T02:15:05.932Z,100
2022-08-26T02:16:02.383Z,100
2022-08-26T02:17:02.335Z,100
2022-08-26T02:18:02.220Z,100
2022-08-26T02:19:03.883Z,100
2022-08-26T02:20:02.122Z,100
2022-08-26T02:21:01.935Z,100
2022-08-26T02:22:02.518Z,100
2022-08-26T02:23:01.724Z,100
2022-08-26T02:24:01.915Z,100
2022-08-26T02:25:02.609Z,100
2022-08-26T02:26:02.414Z,100
2022-08-26T02:27:02.277Z,100
2022-08-26T02:28:03.207Z,100
2022-08-26T02:29:02.687Z,100
2022-08-26T02:30:02.800Z,100
2022-08-26T02:31:03.042Z,100
2022-08-26T02:32:01.630Z,100
2022-08-26T02:33:02.457Z,100
2022-08-26T02:34:02.294Z,100
2022-08-26T02:35:02.132Z,100
2022-08-26T02:36:01.696Z,100
2022-08-26T02:37:02.381Z,100
2022-08-26T02:38:01.704Z,100
2022-08-26T02:39:01.890Z,100
2022-08-26T02:40:03.456Z,100
2022-08-26T02:41:01.905Z,100
2022-08-26T02:42:01.777Z,100
2022-08-26T02:43:02.136Z,100
2022-08-26T02:44:02.044Z,100
2022-08-26T02:45:02.810Z,100
2022-08-26T02:46:02.826Z,100
2022-08-26T02:47:01.740Z,100
2022-08-26T02:48:01.864Z,100
2022-08-26T02:49:01.701Z,100
2022-08-26T02:50:01.535Z,100
2022-08-26T02:51:02.432Z,100
2022-08-26T02:52:02.387Z,100
2022-08-26T02:53:02.766Z,100
2022-08-26T02:54:01.711Z,100
2022-08-26T02:55:02.585Z,100
2022-08-26T02:56:03.340Z,100
2022-08-26T02:57:02.072Z,100
2022-08-26T02:58:03.178Z,100
2022-08-26T02:59:02.095Z,100
2022-08-26T03:00:03.095Z,100
2022-08-26T03:01:05.364Z,100
2022-08-26T03:02:02.463Z,100
2022-08-26T03:03:02.242Z,100
2022-08-26T03:04:02.098Z,100
2022-08-26T03:05:02.704Z,100
2022-08-26T03:06:01.654Z,100
2022-08-26T03:07:02.558Z,100
2022-08-26T03:08:02.294Z,100
2022-08-26T03:09:02.113Z,100
2022-08-26T03:10:08.826Z,100
2022-08-26T03:11:02.075Z,100
2022-08-26T03:12:02.206Z,100
2022-08-26T03:13:05.630Z,100
2022-08-26T03:14:03.921Z,100
2022-08-26T03:15:02.134Z,100
2022-08-26T03:16:02.437Z,100
2022-08-26T03:17:04.139Z,100
2022-08-26T03:18:01.964Z,100
2022-08-26T03:19:01.849Z,100
2022-08-26T03:20:02.072Z,100
2022-08-26T03:21:01.907Z,100
2022-08-26T03:22:01.778Z,100
2022-08-26T03:23:02.199Z,100
2022-08-26T03:24:02.276Z,100
2022-08-26T03:25:02.939Z,100
2022-08-26T03:26:02.212Z,100
2022-08-26T03:27:07.313Z,100
2022-08-26T03:28:02.821Z,100
2022-08-26T03:29:02.400Z,100
2022-08-26T03:30:02.933Z,100
2022-08-26T03:31:02.272Z,100
2022-08-26T03:32:02.587Z,100
2022-08-26T03:33:02.609Z,100
2022-08-26T03:34:02.555Z,100
2022-08-26T03:35:02.494Z,100
2022-08-26T03:36:02.676Z,100
2022-08-26T03:37:03.037Z,100
2022-08-26T03:38:02.167Z,100
2022-08-26T03:39:02.555Z,100
2022-08-26T03:40:02.583Z,100
2022-08-26T03:41:03.096Z,100
2022-08-26T03:42:01.980Z,100
2022-08-26T03:43:02.294Z,100
2022-08-26T03:44:02.257Z,100
2022-08-26T03:45:01.584Z,100
2022-08-26T03:46:04.086Z,100
2022-08-26T03:47:02.608Z,100
2022-08-26T03:48:02.393Z,100
2022-08-26T03:49:02.104Z,100
2022-08-26T03:50:02.073Z,100
2022-08-26T03:51:03.394Z,100
2022-08-26T03:52:01.616Z,100
2022-08-26T03:53:02.723Z,100
2022-08-26T03:54:02.840Z,100
2022-08-26T03:55:03.201Z,100
2022-08-26T03:56:01.888Z,100
2022-08-26T03:57:01.803Z,100
2022-08-26T03:58:02.799Z,100
2022-08-26T03:59:02.231Z,100
2022-08-26T04:00:02.087Z,100
2022-08-26T04:01:02.260Z,100
2022-08-26T04:02:02.572Z,100
2022-08-26T04:03:02.258Z,100
2022-08-26T04:04:03.498Z,100
2022-08-26T04:05:02.344Z,100
2022-08-26T04:06:02.160Z,100
2022-08-26T04:07:02.025Z,100
2022-08-26T04:08:01.862Z,100
2022-08-26T04:09:01.683Z,100
2022-08-26T04:10:02.555Z,100
2022-08-26T04:11:02.538Z,100
2022-08-26T04:12:03.644Z,100
2022-08-26T04:13:02.479Z,100
2022-08-26T04:14:02.377Z,100
2022-08-26T04:15:03.136Z,100
2022-08-26T04:16:02.502Z,100
2022-08-26T04:17:01.825Z,100
2022-08-26T04:18:01.665Z,100
2022-08-26T04:19:02.573Z,100
2022-08-26T04:20:01.880Z,100
2022-08-26T04:21:02.163Z,100
2022-08-26T04:22:01.658Z,100
2022-08-26T04:23:02.696Z,100
2022-08-26T04:24:04.218Z,100
2022-08-26T04:25:02.149Z,100
2022-08-26T04:26:01.934Z,100
2022-08-26T04:27:01.783Z,100
2022-08-26T04:28:01.647Z,100
2022-08-26T04:29:02.598Z,100
2022-08-26T04:30:02.417Z,100
2022-08-26T04:31:02.473Z,100
2022-08-26T04:32:02.426Z,100
2022-08-26T04:33:02.439Z,100
2022-08-26T04:34:02.278Z,100
2022-08-26T04:35:02.337Z,100
2022-08-26T04:36:02.108Z,100
2022-08-26T04:37:01.999Z,100
2022-08-26T04:38:06.107Z,100
2022-08-26T04:39:02.440Z,100
2022-08-26T04:40:02.554Z,100
2022-08-26T04:41:05.684Z,100
2022-08-26T04:42:02.037Z,100
2022-08-26T04:43:01.941Z,100
2022-08-26T04:44:01.890Z,100
2022-08-26T04:45:06.045Z,100
2022-08-26T04:46:02.229Z,100
2022-08-26T04:47:03.310Z,100
2022-08-26T04:48:04.566Z,100
2022-08-26T04:49:02.536Z,100
2022-08-26T04:50:02.758Z,100
2022-08-26T04:51:01.626Z,100
2022-08-26T04:52:02.739Z,100
2022-08-26T04:53:01.646Z,100
2022-08-26T04:54:02.142Z,100
2022-08-26T04:55:01.939Z,100
2022-08-26T04:56:04.149Z,100
2022-08-26T04:57:02.237Z,100
2022-08-26T04:58:02.108Z,100
2022-08-26T04:59:02.554Z,100
2022-08-26T05:00:03.078Z,100
2022-08-26T05:01:02.160Z,100
2022-08-26T05:02:02.207Z,100
2022-08-26T05:03:02.116Z,100
2022-08-26T05:04:07.928Z,100
2022-08-26T05:05:02.530Z,100
2022-08-26T05:06:03.269Z,100
2022-08-26T05:07:03.216Z,100
2022-08-26T05:08:02.123Z,100
2022-08-26T05:09:02.715Z,100
2022-08-26T05:10:03.654Z,100
2022-08-26T05:11:02.803Z,100
2022-08-26T05:12:03.242Z,100
2022-08-26T05:13:03.099Z,100
2022-08-26T05:14:02.722Z,100
2022-08-26T05:15:01.790Z,100
2022-08-26T05:16:02.693Z,100
2022-08-26T05:17:02.099Z,100
2022-08-26T05:18:02.166Z,100
2022-08-26T05:19:02.466Z,100
2022-08-26T05:20:02.365Z,100
2022-08-26T05:21:01.653Z,100
2022-08-26T05:22:03.077Z,100
2022-08-26T05:23:01.982Z,100
2022-08-26T05:24:02.425Z,100
2022-08-26T05:25:02.293Z,100
2022-08-26T05:26:05.537Z,100
2022-08-26T05:27:02.396Z,100
2022-08-26T05:28:02.270Z,100
2022-08-26T05:29:02.157Z,100
2022-08-26T05:30:02.448Z,100
2022-08-26T05:31:01.723Z,100
2022-08-26T05:32:02.755Z,100
2022-08-26T05:33:02.970Z,100
2022-08-26T05:34:04.142Z,100
2022-08-26T05:35:01.599Z,100
2022-08-26T05:36:02.660Z,100
2022-08-26T05:37:01.868Z,100
2022-08-26T05:38:01.781Z,100
2022-08-26T05:39:02.494Z,100
2022-08-26T05:40:02.488Z,100
2022-08-26T05:41:03.745Z,100
2022-08-26T05:42:02.555Z,100
2022-08-26T05:43:02.590Z,100
2022-08-26T05:44:02.449Z,100
2022-08-26T05:45:03.130Z,100
2022-08-26T05:46:06.140Z,100
2022-08-26T05:47:04.167Z,100
2022-08-26T05:48:02.239Z,100
2022-08-26T05:49:01.929Z,100
2022-08-26T05:50:02.709Z,100
2022-08-26T05:51:01.736Z,100
2022-08-26T05:52:01.689Z,100
2022-08-26T05:53:02.830Z,100
2022-08-26T05:54:03.863Z,100
2022-08-26T05:55:01.806Z,100
2022-08-26T05:56:01.786Z,100
2022-08-26T05:57:01.585Z,100
2022-08-26T05:58:03.078Z,100
2022-08-26T05:59:01.984Z,100
2022-08-26T06:00:01.874Z,100
2022-08-26T06:01:03.172Z,100
2022-08-26T06:02:02.280Z,100
2022-08-26T06:03:02.530Z,100
2022-08-26T06:04:02.211Z,100
2022-08-26T06:05:02.252Z,100
2022-08-26T06:06:02.028Z,100
2022-08-26T06:07:02.272Z,100
2022-08-26T06:08:02.106Z,100
2022-08-26T06:09:02.546Z,100
2022-08-26T06:10:32.340Z,100
2022-08-26T06:11:01.903Z,100
2022-08-26T06:12:02.234Z,100
2022-08-26T06:13:12.290Z,100
2022-08-26T06:14:04.492Z,100
2022-08-26T06:15:04.347Z,100
2022-08-26T06:16:02.728Z,100
2022-08-26T06:17:03.596Z,100
2022-08-26T06:18:02.514Z,100
2022-08-26T06:19:02.944Z,100
2022-08-26T06:20:01.883Z,100
2022-08-26T06:21:02.179Z,100
2022-08-26T06:22:02.187Z,100
2022-08-26T06:23:03.183Z,100
2022-08-26T06:24:02.322Z,100
2022-08-26T06:25:02.263Z,100
2022-08-26T06:26:02.680Z,100
2022-08-26T06:27:02.530Z,100
2022-08-26T06:28:03.250Z,100
2022-08-26T06:29:01.982Z,100
2022-08-26T06:30:02.945Z,100
2022-08-26T06:31:02.536Z,100
2022-08-26T06:32:02.618Z,100
2022-08-26T06:33:01.997Z,100
2022-08-26T06:34:02.005Z,100
2022-08-26T06:35:01.960Z,100
2022-08-26T06:36:01.818Z,100
2022-08-26T06:37:02.813Z,100
2022-08-26T06:38:03.820Z,100
2022-08-26T06:39:02.400Z,100
2022-08-26T06:40:04.106Z,100
2022-08-26T06:41:02.760Z,100
2022-08-26T06:42:03.339Z,100
2022-08-26T06:43:03.234Z,100
2022-08-26T06:44:01.800Z,100
2022-08-26T06:45:03.611Z,100
2022-08-26T06:46:05.227Z,100
2022-08-26T06:47:02.191Z,100
2022-08-26T06:48:02.398Z,100
2022-08-26T06:49:02.018Z,100
2022-08-26T06:50:01.922Z,100
2022-08-26T06:51:02.119Z,100
2022-08-26T06:52:01.975Z,100
2022-08-26T06:53:02.262Z,100
2022-08-26T06:54:02.791Z,100
2022-08-26T06:55:01.875Z,100
2022-08-26T06:56:02.038Z,100
2022-08-26T06:57:02.303Z,98
2022-08-26T06:58:04.690Z,100
2022-08-26T06:59:02.512Z,98
2022-08-26T07:00:02.455Z,98
2022-08-26T07:01:11.868Z,97
2022-08-26T07:02:02.575Z,96
2022-08-26T07:03:01.940Z,97
2022-08-26T07:04:02.101Z,97
2022-08-26T07:05:02.047Z,97
2022-08-26T07:06:01.987Z,92
2022-08-26T07:07:02.725Z,91
2022-08-26T07:08:01.598Z,91
2022-08-26T07:09:03.543Z,90
2022-08-26T07:10:02.444Z,90
2022-08-26T07:11:02.292Z,92
2022-08-26T07:12:03.251Z,92
2022-08-26T07:13:02.981Z,90
2022-08-26T07:14:01.802Z,90
2022-08-26T07:15:01.643Z,90
2022-08-26T07:16:03.408Z,92
2022-08-26T07:17:01.578Z,92
2022-08-26T07:18:02.556Z,94
2022-08-26T07:19:08.577Z,86
2022-08-26T07:20:02.320Z,88
2022-08-26T07:21:03.052Z,87
2022-08-26T07:22:01.735Z,85
2022-08-26T07:23:02.333Z,86
2022-08-26T07:24:02.375Z,94
2022-08-26T07:25:01.561Z,88
2022-08-26T07:26:02.166Z,86
2022-08-26T07:27:03.165Z,84
2022-08-26T07:28:03.586Z,89
2022-08-26T07:29:02.432Z,89
2022-08-26T07:30:02.856Z,89
2022-08-26T07:31:02.039Z,87
2022-08-26T07:32:02.007Z,82
2022-08-26T07:33:02.548Z,83
2022-08-26T07:34:04.177Z,84
2022-08-26T07:35:01.948Z,87
2022-08-26T07:36:04.559Z,90
2022-08-26T07:37:02.430Z,88
2022-08-26T07:38:02.505Z,88
2022-08-26T07:39:02.237Z,88
2022-08-26T07:40:02.822Z,88
2022-08-26T07:41:01.956Z,91
2022-08-26T07:42:08.151Z,88
2022-08-26T07:43:02.915Z,85
2022-08-26T07:44:01.739Z,85
2022-08-26T07:45:02.085Z,89
2022-08-26T07:46:02.034Z,88
2022-08-26T07:47:02.305Z,86
2022-08-26T07:48:04.228Z,87
2022-08-26T07:49:02.599Z,85
2022-08-26T07:50:01.671Z,88
2022-08-26T07:51:02.721Z,85
2022-08-26T07:52:02.590Z,84
2022-08-26T07:53:02.685Z,82
2022-08-26T07:54:02.498Z,84
2022-08-26T07:55:02.548Z,87
2022-08-26T07:56:02.517Z,87
2022-08-26T07:57:09.603Z,86
2022-08-26T07:58:02.109Z,82
2022-08-26T07:59:02.944Z,81
2022-08-26T08:00:01.779Z,76
2022-08-26T08:01:05.004Z,77
2022-08-26T08:02:03.542Z,77
2022-08-26T08:03:02.793Z,74
2022-08-26T08:04:02.593Z,74
2022-08-26T08:05:02.969Z,79
2022-08-26T08:06:02.604Z,75
2022-08-26T08:07:02.500Z,75
2022-08-26T08:08:29.107Z,76
2022-08-26T08:09:02.110Z,74
2022-08-26T08:10:07.898Z,75
2022-08-26T08:11:02.296Z,72
2022-08-26T08:12:02.124Z,74
2022-08-26T08:13:03.237Z,73
2022-08-26T08:14:02.166Z,73
2022-08-26T08:15:01.855Z,73
2022-08-26T08:16:01.797Z,75
2022-08-26T08:17:02.610Z,73
2022-08-26T08:18:04.427Z,73
2022-08-26T08:19:04.037Z,75
2022-08-26T08:20:04.516Z,75
2022-08-26T08:21:23.730Z,72
2022-08-26T08:22:02.144Z,72
2022-08-26T08:23:02.164Z,73
2022-08-26T08:24:02.106Z,76
2022-08-26T08:25:08.391Z,76
2022-08-26T08:26:02.060Z,72
2022-08-26T08:27:02.513Z,71
2022-08-26T08:28:02.422Z,71
2022-08-26T08:29:02.821Z,71
2022-08-26T08:30:01.789Z,73
2022-08-26T08:31:01.820Z,70
2022-08-26T08:32:02.517Z,74
2022-08-26T08:33:02.124Z,73
2022-08-26T08:34:02.848Z,69
2022-08-26T08:35:11.806Z,69
2022-08-26T08:36:01.851Z,68
2022-08-26T08:37:05.218Z,65
2022-08-26T08:38:04.611Z,62
2022-08-26T08:39:01.552Z,63
2022-08-26T08:40:02.631Z,63
2022-08-26T08:41:05.799Z,64
2022-08-26T08:42:02.739Z,60
2022-08-26T08:43:01.930Z,63
2022-08-26T08:44:01.756Z,64
2022-08-26T08:45:01.647Z,66
2022-08-26T08:46:04.745Z,64
2022-08-26T08:47:02.174Z,64
2022-08-26T08:48:02.259Z,62
2022-08-26T08:49:02.494Z,57
2022-08-26T08:50:01.767Z,58
2022-08-26T08:51:01.771Z,57
2022-08-26T08:52:01.595Z,56
2022-08-26T08:53:01.815Z,57
2022-08-26T08:54:01.818Z,57
2022-08-26T08:55:01.765Z,61
2022-08-26T08:56:01.722Z,57
2022-08-26T08:57:01.902Z,58
2022-08-26T08:58:02.807Z,59
2022-08-26T08:59:01.938Z,58
2022-08-26T09:00:01.876Z,58
2022-08-26T09:01:02.882Z,59
2022-08-26T09:02:02.441Z,57
2022-08-26T09:03:02.474Z,55
2022-08-26T09:04:02.290Z,61
2022-08-26T09:05:02.313Z,57
2022-08-26T09:06:02.521Z,60
2022-08-26T09:07:02.780Z,59
2022-08-26T09:08:01.700Z,57
2022-08-26T09:09:03.631Z,59
2022-08-26T09:10:01.790Z,56
2022-08-26T09:11:02.125Z,60
2022-08-26T09:12:01.955Z,56
2022-08-26T09:13:02.875Z,58
2022-08-26T09:14:02.482Z,54
2022-08-26T09:15:02.440Z,58
2022-08-26T09:16:02.161Z,58
2022-08-26T09:17:02.815Z,52
2022-08-26T09:18:06.064Z,54
2022-08-26T09:19:03.804Z,56
2022-08-26T09:20:01.838Z,56
2022-08-26T09:21:01.659Z,52
2022-08-26T09:22:09.440Z,53
2022-08-26T09:23:02.568Z,55
2022-08-26T09:24:02.608Z,56
2022-08-26T09:25:02.281Z,57
2022-08-26T09:26:02.595Z,54
2022-08-26T09:27:02.490Z,55
2022-08-26T09:28:04.009Z,53
2022-08-26T09:29:02.325Z,54
2022-08-26T09:30:02.282Z,51
2022-08-26T09:31:09.298Z,54
2022-08-26T09:32:02.353Z,57
2022-08-26T09:33:02.319Z,57
2022-08-26T09:34:02.495Z,51
2022-08-26T09:35:01.710Z,50
2022-08-26T09:36:01.631Z,52
2022-08-26T09:37:04.999Z,48
2022-08-26T09:38:01.850Z,50
2022-08-26T09:39:02.105Z,48
2022-08-26T09:40:02.339Z,49
2022-08-26T09:41:02.367Z,49
2022-08-26T09:42:02.945Z,47
2022-08-26T09:43:01.837Z,49
2022-08-26T09:44:02.403Z,51
2022-08-26T09:45:02.242Z,53
2022-08-26T09:46:01.909Z,53
2022-08-26T09:47:02.027Z,52
2022-08-26T09:48:02.701Z,52
2022-08-26T09:49:05.261Z,52
2022-08-26T09:50:02.492Z,51
2022-08-26T09:51:02.550Z,52
2022-08-26T09:52:03.619Z,51
2022-08-26T09:53:02.566Z,51
2022-08-26T09:54:02.238Z,50
2022-08-26T09:55:03.769Z,50
2022-08-26T09:56:02.317Z,50
2022-08-26T09:57:02.180Z,50
2022-08-26T09:58:09.350Z,50
2022-08-26T09:59:01.940Z,49
2022-08-26T10:00:02.607Z,50
2022-08-26T10:01:03.281Z,50
2022-08-26T10:03:02.156Z,47
2022-08-26T10:04:02.363Z,46
2022-08-26T10:05:09.891Z,47
2022-08-26T10:06:01.926Z,49
2022-08-26T10:07:02.294Z,52
2022-08-26T10:08:03.244Z,48
2022-08-26T10:09:08.373Z,49
2022-08-26T10:10:01.610Z,48
2022-08-26T10:11:02.579Z,48
2022-08-26T10:12:01.949Z,47
2022-08-26T10:13:02.043Z,49
2022-08-26T10:14:02.535Z,46
2022-08-26T10:15:02.771Z,47
2022-08-26T10:16:02.058Z,46
2022-08-26T10:17:02.124Z,47
2022-08-26T10:18:02.090Z,47
2022-08-26T10:19:01.757Z,46
2022-08-26T10:20:01.784Z,45
2022-08-26T10:21:01.825Z,45
2022-08-26T10:22:02.562Z,42
2022-08-26T10:23:02.800Z,44
2022-08-26T10:24:01.956Z,43
2022-08-26T10:25:03.137Z,43
2022-08-26T10:26:02.731Z,44
2022-08-26T10:27:02.971Z,45
2022-08-26T10:28:01.857Z,45
2022-08-26T10:29:01.841Z,44
2022-08-26T10:30:01.604Z,44
2022-08-26T10:31:01.840Z,43
2022-08-26T10:32:03.676Z,45
2022-08-26T10:33:01.723Z,45
2022-08-26T10:34:01.650Z,43
2022-08-26T10:35:02.594Z,46
2022-08-26T10:36:02.439Z,43
2022-08-26T10:37:16.579Z,42
2022-08-26T10:38:02.564Z,45
2022-08-26T10:39:02.514Z,44
2022-08-26T10:40:02.820Z,40
2022-08-26T10:41:02.508Z,41
2022-08-26T10:42:02.521Z,42
2022-08-26T10:43:11.202Z,42
2022-08-26T10:44:04.143Z,43
2022-08-26T10:45:02.567Z,42
2022-08-26T10:46:03.146Z,43
2022-08-26T10:47:02.787Z,44
2022-08-26T10:48:02.464Z,45
2022-08-26T10:49:06.939Z,41
2022-08-26T10:50:03.772Z,42
2022-08-26T10:51:02.591Z,42
2022-08-26T10:52:02.551Z,40
2022-08-26T10:53:02.382Z,39
2022-08-26T10:54:03.564Z,40
2022-08-26T10:55:03.363Z,39
2022-08-26T10:56:02.279Z,39
2022-08-26T10:57:02.352Z,39
2022-08-26T10:58:07.256Z,41
2022-08-26T10:59:02.560Z,41
2022-08-26T11:00:04.605Z,41
2022-08-26T11:01:10.782Z,41
2022-08-26T11:02:04.278Z,43
2022-08-26T11:03:01.629Z,40
2022-08-26T11:04:02.537Z,40
2022-08-26T11:05:02.521Z,41
2022-08-26T11:06:02.485Z,41
2022-08-26T11:07:02.632Z,42
2022-08-26T11:08:02.073Z,42
2022-08-26T11:09:02.122Z,38
2022-08-26T11:10:01.953Z,39
2022-08-26T11:11:01.885Z,38
2022-08-26T11:12:10.468Z,38
2022-08-26T11:13:02.631Z,41
2022-08-26T11:14:02.501Z,39
2022-08-26T11:15:05.458Z,39
2022-08-26T11:16:01.860Z,37
2022-08-26T11:17:02.317Z,39
2022-08-26T11:18:02.922Z,39
2022-08-26T11:19:02.033Z,37
2022-08-26T11:20:13.290Z,38
2022-08-26T11:21:02.310Z,39
2022-08-26T11:22:03.465Z,38
2022-08-26T11:23:02.632Z,38
2022-08-26T11:24:02.731Z,38
2022-08-26T11:25:02.327Z,39
2022-08-26T11:26:03.796Z,36
2022-08-26T11:27:01.980Z,36
2022-08-26T11:28:02.359Z,37
2022-08-26T11:29:03.440Z,36
2022-08-26T11:30:02.579Z,35
2022-08-26T11:31:04.807Z,36
2022-08-26T11:32:02.991Z,37
2022-08-26T11:33:02.926Z,36
2022-08-26T11:34:02.875Z,36
2022-08-26T11:35:02.084Z,35
2022-08-26T11:36:12.838Z,36
2022-08-26T11:37:04.349Z,37
2022-08-26T11:38:04.571Z,35
2022-08-26T11:39:03.082Z,37
2022-08-26T11:40:03.148Z,37
2022-08-26T11:41:04.211Z,37
2022-08-26T11:42:02.301Z,35
2022-08-26T11:43:02.126Z,35
2022-08-26T11:44:02.044Z,36
2022-08-26T11:45:05.939Z,35
2022-08-26T11:46:03.084Z,36
2022-08-26T11:47:02.715Z,35
2022-08-26T11:48:01.678Z,35
2022-08-26T11:49:01.770Z,35
2022-08-26T11:50:01.920Z,36
2022-08-26T11:51:02.895Z,36
2022-08-26T11:52:02.337Z,36
2022-08-26T11:53:02.745Z,36
2022-08-26T11:54:01.581Z,36
2022-08-26T11:55:02.554Z,36
2022-08-26T11:56:02.377Z,35
2022-08-26T11:57:11.661Z,36
2022-08-26T11:58:01.839Z,33
2022-08-26T11:59:02.510Z,33
2022-08-26T12:00:02.633Z,34
2022-08-26T12:01:03.957Z,34
2022-08-26T12:02:02.291Z,34
2022-08-26T12:03:02.301Z,34
2022-08-26T12:04:02.735Z,35
2022-08-26T12:05:02.226Z,35
2022-08-26T12:06:02.926Z,35
2022-08-26T12:07:01.877Z,35
2022-08-26T12:08:02.773Z,36
2022-08-26T12:09:02.171Z,34
2022-08-26T12:10:02.618Z,34
2022-08-26T12:11:02.591Z,34
2022-08-26T12:12:02.511Z,35
2022-08-26T12:13:02.707Z,35
2022-08-26T12:14:02.375Z,35
2022-08-26T12:15:03.642Z,32
2022-08-26T12:16:03.421Z,32
2022-08-26T12:17:02.072Z,32
2022-08-26T12:18:02.118Z,33
2022-08-26T12:19:01.930Z,34
2022-08-26T12:20:01.991Z,31
2022-08-26T12:21:02.480Z,32
2022-08-26T12:22:02.534Z,33
2022-08-26T12:23:01.832Z,33
2022-08-26T12:24:01.773Z,33
2022-08-26T12:25:02.758Z,32
2022-08-26T12:26:02.769Z,32
2022-08-26T12:27:01.841Z,31
2022-08-26T12:28:01.720Z,34
2022-08-26T12:29:10.057Z,33
2022-08-26T12:30:01.936Z,32
2022-08-26T12:31:02.019Z,31
2022-08-26T12:32:02.139Z,31
2022-08-26T12:33:15.777Z,31
2022-08-26T12:34:02.212Z,31
2022-08-26T12:36:02.067Z,32
2022-08-26T12:37:03.402Z,32
2022-08-26T12:38:01.965Z,31
2022-08-26T12:39:01.986Z,32
2022-08-26T12:40:03.690Z,32
2022-08-26T12:41:02.338Z,31
2022-08-26T12:42:02.333Z,32
2022-08-26T12:43:02.280Z,33
2022-08-26T12:44:02.095Z,32
2022-08-26T12:45:02.105Z,35
2022-08-26T12:46:02.456Z,35
2022-08-26T12:47:01.549Z,35
2022-08-26T12:48:02.729Z,33
2022-08-26T12:49:01.783Z,31
2022-08-26T12:50:01.733Z,32
2022-08-26T12:51:03.180Z,33
2022-08-26T12:52:02.576Z,35
2022-08-26T12:53:02.635Z,34
2022-08-26T12:54:02.495Z,32
2022-08-26T12:55:02.564Z,31
2022-08-26T12:56:02.409Z,33
2022-08-26T12:57:02.398Z,33
2022-08-26T12:58:02.328Z,33
2022-08-26T12:59:02.201Z,35
2022-08-26T13:00:02.271Z,34
2022-08-26T13:01:03.092Z,34
2022-08-26T13:02:02.287Z,33
2022-08-26T13:03:02.543Z,33
2022-08-26T13:04:02.579Z,33
2022-08-26T13:05:02.462Z,33
2022-08-26T13:06:02.473Z,32
2022-08-26T13:07:02.301Z,33
2022-08-26T13:08:02.217Z,33
2022-08-26T13:09:01.988Z,33
2022-08-26T13:10:01.986Z,33
2022-08-26T13:11:02.037Z,32
2022-08-26T13:12:02.732Z,35
2022-08-26T13:13:02.697Z,34
2022-08-26T13:14:07.372Z,35
2022-08-26T13:15:02.240Z,34
2022-08-26T13:16:02.708Z,32
2022-08-26T13:17:01.710Z,32
2022-08-26T13:18:02.619Z,33
2022-08-26T13:19:02.442Z,33
2022-08-26T13:20:04.774Z,34
2022-08-26T13:21:01.605Z,34
2022-08-26T13:22:02.695Z,32
2022-08-26T13:23:02.544Z,32
2022-08-26T13:24:02.604Z,32
2022-08-26T13:25:02.415Z,33
2022-08-26T13:26:02.375Z,33
2022-08-26T13:27:02.298Z,33
2022-08-26T13:28:02.115Z,33
2022-08-26T13:29:04.544Z,35
2022-08-26T13:30:02.095Z,32
2022-08-26T13:31:02.344Z,34
2022-08-26T13:32:02.588Z,33
2022-08-26T13:33:04.308Z,33
2022-08-26T13:34:02.098Z,33
2022-08-26T13:35:06.076Z,33
2022-08-26T13:36:01.909Z,33
2022-08-26T13:37:01.780Z,33
2022-08-26T13:38:01.615Z,33
2022-08-26T13:39:02.678Z,34
2022-08-26T13:40:02.758Z,35
2022-08-26T13:41:01.904Z,34
2022-08-26T13:42:01.694Z,33
2022-08-26T13:43:01.849Z,33
2022-08-26T13:44:01.718Z,33
2022-08-26T13:45:01.676Z,32
2022-08-26T13:46:02.704Z,33
2022-08-26T13:47:02.527Z,33
2022-08-26T13:48:02.714Z,33
2022-08-26T13:49:01.567Z,33
2022-08-26T13:50:02.665Z,33
2022-08-26T13:51:03.696Z,34
2022-08-26T13:52:01.736Z,34
2022-08-26T13:53:01.686Z,34
2022-08-26T13:54:02.643Z,35
2022-08-26T13:55:02.471Z,35
2022-08-26T13:56:02.399Z,36
2022-08-26T13:57:02.487Z,36
2022-08-26T13:58:02.332Z,35
2022-08-26T13:59:02.481Z,35
2022-08-26T14:00:02.320Z,35
2022-08-26T14:01:01.803Z,34
2022-08-26T14:02:01.986Z,34